Time;durP1;ratioP1;P1;durP2;ratioP2;P2;SDS_P1;SDS_P2;PMS_P1;PMS_P2;Temp;Humidity;BMP_temperature;BMP_pressure;BME280_temperature;BME280_humidity;BME280_pressure;Samples;Min_cycle;Max_cycle;Signal;HPM_P1;HPM_P2
2021/01/22 00:00:26;;;;;;;62.98;30.62;;;;;;;-2.70;88.52;100344.91;1736802;81;21777;-48
2021/01/22 00:02:53;;;;;;;54.20;26.97;;;;;;;-2.70;88.52;100346.64;1739948;81;21098;-48
2021/01/22 00:05:21;;;;;;;60.63;29.18;;;;;;;-2.71;88.51;100346.23;1726064;81;21415;-48
2021/01/22 00:07:49;;;;;;;59.30;27.25;;;;;;;-2.73;88.51;100338.95;1734123;81;21409;-47
2021/01/22 00:10:17;;;;;;;60.45;27.02;;;;;;;-2.75;88.66;100342.89;1730803;81;21038;-48
2021/01/22 00:12:44;;;;;;;54.53;26.33;;;;;;;-2.76;88.80;100337.73;1740001;80;21122;-48
2021/01/22 00:15:12;;;;;;;63.40;30.20;;;;;;;-2.77;88.81;100341.22;1729308;81;21149;-47
2021/01/22 00:17:40;;;;;;;56.25;25.75;;;;;;;-2.78;88.80;100329.16;1724318;81;21356;-47
2021/01/22 00:20:09;;;;;;;62.03;29.63;;;;;;;-2.80;88.79;100326.62;1717596;81;22222;-47
2021/01/22 00:22:37;;;;;;;61.68;30.72;;;;;;;-2.83;88.80;100332.72;1719487;81;21797;-53
2021/01/22 00:25:06;;;;;;;63.10;30.05;;;;;;;-2.86;88.79;100326.80;1737068;81;22012;-47
2021/01/22 00:27:34;;;;;;;59.85;28.83;;;;;;;-2.89;88.73;100329.00;1743059;81;21007;-46
2021/01/22 00:30:03;;;;;;;59.10;27.37;;;;;;;-2.91;88.84;100320.42;1739336;81;21194;-48
2021/01/22 00:32:32;;;;;;;56.23;27.52;;;;;;;-2.92;89.01;100322.61;1743153;81;21408;-48
2021/01/22 00:35:00;;;;;;;59.13;28.25;;;;;;;-2.91;89.07;100317.84;1743153;81;21493;-48
2021/01/22 00:37:27;;;;;;;61.40;29.02;;;;;;;-2.93;89.17;100317.03;1742949;81;21141;-48
2021/01/22 00:39:55;;;;;;;61.95;29.10;;;;;;;-2.93;89.34;100314.44;1743029;81;21113;-48
2021/01/22 00:42:23;;;;;;;67.92;31.42;;;;;;;-2.92;89.36;100317.89;1743017;81;21197;-48
2021/01/22 00:44:51;;;;;;;60.10;28.98;;;;;;;-2.91;89.40;100305.34;1734436;81;21143;-48
2021/01/22 00:47:19;;;;;;;64.75;29.05;;;;;;;-2.91;89.35;100307.94;1740653;81;21011;-48
2021/01/22 00:49:47;;;;;;;67.47;29.32;;;;;;;-2.93;89.30;100300.66;1742960;81;21128;-47
2021/01/22 00:52:14;;;;;;;68.75;29.98;;;;;;;-2.94;89.42;100291.19;1742894;81;21137;-47
2021/01/22 00:54:42;;;;;;;65.75;28.87;;;;;;;-2.97;89.56;100289.09;1742827;81;21194;-47
2021/01/22 00:57:20;;;;;;;65.97;30.37;;;;;;;-2.92;89.65;100285.52;1848137;74;28241;-48
2021/01/22 00:59:49;;;;;;;66.90;29.52;;;;;;;-2.98;89.86;100286.52;1781334;77;21053;-48
2021/01/22 01:02:17;;;;;;;62.15;29.35;;;;;;;-2.99;90.04;100286.12;1838716;76;21200;-48
2021/01/22 01:04:45;;;;;;;68.17;29.87;;;;;;;-2.97;90.17;100288.22;1827445;75;22061;-48
2021/01/22 01:07:14;;;;;;;66.45;29.87;;;;;;;-2.96;90.29;100297.69;1801297;77;22286;-49
2021/01/22 01:09:43;;;;;;;68.42;31.02;;;;;;;-2.93;90.40;100279.47;1803989;77;21161;-48
2021/01/22 01:12:15;;;;;;;67.22;28.45;;;;;;;-2.93;90.48;100279.47;1807026;75;21023;-48
2021/01/22 01:14:51;;;;;;;68.67;29.80;;;;;;;-2.91;90.55;100277.69;1801063;78;22518;-48
2021/01/22 01:17:21;;;;;;;69.90;29.55;;;;;;;-2.92;90.67;100281.17;1812432;77;21968;-48
2021/01/22 01:19:49;;;;;;;61.68;27.10;;;;;;;-2.91;90.82;100272.52;1771126;80;22008;-48
2021/01/22 01:22:16;;;;;;;71.53;30.65;;;;;;;-2.89;90.93;100275.91;1733996;81;21014;-48
2021/01/22 01:24:44;;;;;;;66.47;28.23;;;;;;;-2.88;91.02;100271.59;1776532;80;20991;-48
2021/01/22 01:27:12;;;;;;;68.22;29.10;;;;;;;-2.88;91.19;100262.53;1752024;80;21381;-48
2021/01/22 01:29:39;;;;;;;69.62;29.90;;;;;;;-2.87;91.34;100264.22;1770558;80;20997;-48
2021/01/22 01:32:07;;;;;;;63.33;29.23;;;;;;;-2.87;91.54;100268.95;1771027;80;21685;-47
2021/01/22 01:34:35;;;;;;;69.37;29.98;;;;;;;-2.86;91.59;100265.92;1770703;80;22243;-48
2021/01/22 01:37:03;;;;;;;69.95;30.75;;;;;;;-2.83;91.70;100264.54;1771408;80;21143;-48
2021/01/22 01:39:30;;;;;;;72.00;32.30;;;;;;;-2.80;91.78;100261.86;1771464;80;21186;-48
2021/01/22 01:41:58;;;;;;;75.20;32.65;;;;;;;-2.78;91.83;100255.33;1771299;80;21167;-48
2021/01/22 01:44:26;;;;;;;75.00;31.97;;;;;;;-2.76;91.81;100253.11;1771398;80;22094;-48
2021/01/22 01:46:55;;;;;;;65.42;29.75;;;;;;;-2.73;91.81;100246.54;1770914;80;21009;-48
2021/01/22 01:49:23;;;;;;;65.17;29.72;;;;;;;-2.71;91.81;100243.89;1750089;80;21608;-48
2021/01/22 01:51:51;;;;;;;75.20;30.52;;;;;;;-2.70;91.81;100241.70;1770573;80;21266;-48
2021/01/22 01:54:19;;;;;;;73.52;30.72;;;;;;;-2.70;91.85;100241.70;1729420;80;21011;-48
2021/01/22 01:56:47;;;;;;;70.05;31.02;;;;;;;-2.69;91.94;100236.92;1780474;80;21411;-48
2021/01/22 01:59:14;;;;;;;68.57;29.67;;;;;;;-2.70;92.00;100236.52;1785519;80;20972;-48
2021/01/22 02:01:42;;;;;;;73.97;33.42;;;;;;;-2.71;92.06;100228.34;1745566;81;21133;-48
2021/01/22 02:04:11;;;;;;;74.62;31.05;;;;;;;-2.68;92.18;100237.33;1763106;79;21356;-48
2021/01/22 02:06:38;;;;;;;83.85;35.50;;;;;;;-2.70;92.23;100228.31;1758841;79;22198;-48
2021/01/22 02:09:07;;;;;;;79.32;31.30;;;;;;;-2.69;92.30;100213.60;1781998;80;21002;-48
2021/01/22 02:11:34;;;;;;;75.65;33.02;;;;;;;-2.69;92.43;100211.88;1777266;79;21747;-48
2021/01/22 02:14:02;;;;;;;66.28;28.90;;;;;;;-2.67;92.48;100234.70;1786971;80;22048;-48
2021/01/22 02:16:30;;;;;;;68.83;28.20;;;;;;;-2.64;92.54;100222.52;1782407;80;21292;-47
2021/01/22 02:18:58;;;;;;;71.85;30.48;;;;;;;-2.62;92.62;100229.37;1780241;80;21013;-48
2021/01/22 02:21:31;;;;;;;74.58;32.90;;;;;;;-2.59;92.62;100227.12;1786620;79;21724;-48
2021/01/22 02:24:09;;;;;;;68.75;30.90;;;;;;;-2.56;92.58;100226.59;1755186;79;21978;-48
2021/01/22 02:26:59;;;;;;;76.77;32.08;;;;;;;-2.56;92.54;100217.95;1745767;81;21004;-48
2021/01/22 02:29:26;;;;;;;68.15;30.57;;;;;;;-2.56;92.57;100218.81;1753173;81;21999;-48
2021/01/22 02:31:54;;;;;;;74.05;29.72;;;;;;;-2.54;92.59;100237.76;1775225;80;21006;-48
2021/01/22 02:34:26;;;;;;;72.05;32.13;;;;;;;-2.50;92.65;100226.00;1778038;80;20990;-48
2021/01/22 02:36:59;;;;;;;71.57;31.87;;;;;;;-2.52;92.60;100228.62;1786030;80;21128;-48
2021/01/22 02:39:30;;;;;;;77.15;32.40;;;;;;;-2.49;92.60;100219.46;1773657;80;21961;-48
2021/01/22 02:41:58;;;;;;;72.58;31.80;;;;;;;-2.50;92.58;100209.99;1760808;80;21656;-48
2021/01/22 02:44:26;;;;;;;65.75;28.42;;;;;;;-2.51;92.66;100213.48;1759870;79;21469;-48
2021/01/22 02:46:54;;;;;;;69.62;28.83;;;;;;;-2.51;92.69;100208.30;1757964;81;21007;-48
2021/01/22 02:49:21;;;;;;;75.22;32.25;;;;;;;-2.50;92.76;100216.94;1752929;79;21097;-48
2021/01/22 02:51:49;;;;;;;67.20;29.10;;;;;;;-2.48;92.83;100213.84;1748238;81;21158;-48
2021/01/22 02:54:17;;;;;;;63.40;29.00;;;;;;;-2.47;92.88;100206.47;1758089;79;21914;-48
2021/01/22 02:56:53;;;;;;;67.15;30.30;;;;;;;-2.48;92.89;100206.07;1767583;80;21037;-48
2021/01/22 02:59:49;;;;;;;67.45;27.67;;;;;;;-2.46;92.94;100209.46;1770174;80;21122;-47
2021/01/22 03:02:55;;;;;;;72.65;30.92;;;;;;;-2.47;92.98;100207.77;1773726;80;22063;-47
2021/01/22 03:05:24;;;;;;;69.10;29.80;;;;;;;-2.46;92.99;100208.17;1760661;80;21636;-48
2021/01/22 03:08:16;;;;;;;73.00;31.62;;;;;;;-2.47;93.05;100210.36;1767513;80;23031;-48
2021/01/22 03:10:45;;;;;;;72.37;30.08;;;;;;;-2.47;93.11;100196.11;1758576;80;21024;-47
2021/01/22 03:13:13;;;;;;;72.17;29.32;;;;;;;-2.45;93.16;100192.55;1747655;80;21022;-47
2021/01/22 03:15:40;;;;;;;75.55;32.60;;;;;;;-2.42;93.21;100193.75;1753072;80;21171;-47
2021/01/22 03:18:19;;;;;;;70.87;30.43;;;;;;;-2.41;93.19;100188.14;1765226;80;21520;-47
2021/01/22 03:20:48;;;;;;;70.85;30.88;;;;;;;-2.39;93.20;100191.53;1759247;80;21353;-47
2021/01/22 03:23:18;;;;;;;74.70;34.08;;;;;;;-2.37;93.18;100192.33;1770884;80;21022;-47
2021/01/22 03:25:46;;;;;;;67.85;29.32;;;;;;;-2.37;93.15;100187.14;1765250;80;21009;-48
2021/01/22 03:28:15;;;;;;;66.25;29.50;;;;;;;-2.39;93.19;100185.05;1786697;79;21134;-47
2021/01/22 03:30:42;;;;;;;64.67;28.60;;;;;;;-2.38;93.25;100186.75;1755207;79;21120;-47
2021/01/22 03:33:11;;;;;;;61.92;27.02;;;;;;;-2.37;93.29;100182.79;1757222;79;21370;-47
2021/01/22 03:35:40;;;;;;;73.30;31.02;;;;;;;-2.34;93.36;100181.86;1789666;79;20991;-47
2021/01/22 03:38:07;;;;;;;65.72;28.65;;;;;;;-2.33;93.34;100184.86;1771555;79;20977;-47
2021/01/22 03:40:36;;;;;;;68.95;29.37;;;;;;;-2.29;93.37;100181.70;1778691;80;21930;-47
2021/01/22 03:43:03;;;;;;;62.48;26.25;;;;;;;-2.29;93.35;100182.56;1781744;80;22087;-47
2021/01/22 03:45:32;;;;;;;62.98;29.10;;;;;;;-2.27;93.31;100187.25;1781537;80;21375;-47
2021/01/22 03:47:59;;;;;;;62.85;28.83;;;;;;;-2.27;93.23;100185.95;1781624;80;21621;-48
2021/01/22 03:50:27;;;;;;;68.90;30.48;;;;;;;-2.26;93.25;100173.83;1779670;80;21007;-48
2021/01/22 03:52:55;;;;;;;64.35;28.27;;;;;;;-2.26;93.28;100188.95;1781370;80;20940;-47
2021/01/22 03:55:22;;;;;;;67.30;30.45;;;;;;;-2.24;93.29;100183.27;1779446;80;21007;-47
2021/01/22 03:57:51;;;;;;;65.62;30.80;;;;;;;-2.23;93.28;100194.47;1780870;80;21243;-47
2021/01/22 04:00:19;;;;;;;65.45;28.90;;;;;;;-2.24;93.26;100189.74;1735736;80;21626;-47
2021/01/22 04:02:46;;;;;;;64.53;28.80;;;;;;;-2.23;93.26;100187.55;1775629;80;21017;-47
2021/01/22 04:05:14;;;;;;;62.05;26.70;;;;;;;-2.21;93.32;100193.97;1781589;80;21553;-47
2021/01/22 04:07:42;;;;;;;68.95;29.50;;;;;;;-2.20;93.36;100201.31;1733381;80;21550;-47
2021/01/22 04:10:11;;;;;;;69.17;30.00;;;;;;;-2.16;93.38;100200.32;1740372;80;21383;-47
2021/01/22 04:12:39;;;;;;;63.95;27.37;;;;;;;-2.18;93.33;100180.91;1750867;80;21119;-47
2021/01/22 04:15:08;;;;;;;64.35;28.38;;;;;;;-2.18;93.35;100192.58;1780532;80;20995;-48
2021/01/22 04:17:36;;;;;;;66.30;29.10;;;;;;;-2.19;93.37;100188.75;1773726;80;21608;-47
2021/01/22 04:20:05;;;;;;;61.18;28.02;;;;;;;-2.18;93.38;100173.59;1769772;80;20989;-47
2021/01/22 04:22:33;;;;;;;61.25;26.12;;;;;;;-2.17;93.40;100172.69;1769659;80;21414;-47
2021/01/22 04:25:01;;;;;;;62.53;26.68;;;;;;;-2.15;93.42;100171.73;1778864;80;21137;-47
2021/01/22 04:27:28;;;;;;;61.33;29.23;;;;;;;-2.14;93.42;100183.80;1769618;80;21546;-47
2021/01/22 04:29:56;;;;;;;62.67;28.02;;;;;;;-2.11;93.46;100176.34;1769569;80;20985;-48
2021/01/22 04:32:24;;;;;;;58.08;26.48;;;;;;;-2.10;93.43;100179.34;1769492;80;21115;-47
2021/01/22 04:34:52;;;;;;;62.95;27.30;;;;;;;-2.10;93.43;100168.97;1769481;80;21161;-47
2021/01/22 04:37:19;;;;;;;65.57;27.65;;;;;;;-2.10;93.40;100167.67;1764244;80;21123;-47
2021/01/22 04:39:47;;;;;;;66.30;28.92;;;;;;;-2.10;93.43;100172.42;1773400;80;21978;-48
2021/01/22 04:42:15;;;;;;;69.47;29.48;;;;;;;-2.08;93.45;100170.62;1772052;80;20970;-47
2021/01/22 04:44:43;;;;;;;64.45;29.52;;;;;;;-2.05;93.49;100173.55;1762298;80;21149;-47
2021/01/22 04:47:10;;;;;;;66.95;28.90;;;;;;;-2.04;93.46;100172.66;1776282;80;22502;-47
2021/01/22 04:49:39;;;;;;;64.72;28.00;;;;;;;-2.02;93.37;100172.16;1773055;78;21016;-47
2021/01/22 04:52:10;;;;;;;66.75;30.60;;;;;;;-2.01;93.37;100162.17;1732800;80;21002;-47
2021/01/22 04:54:41;;;;;;;71.00;30.43;;;;;;;-1.98;93.42;100166.43;1754233;80;20967;-47
2021/01/22 04:57:09;;;;;;;67.17;31.10;;;;;;;-1.99;93.40;100162.97;1754151;79;21138;-47
2021/01/22 04:59:50;;;;;;;69.92;29.40;;;;;;;-1.98;93.35;100159.48;1740250;81;21346;-48
2021/01/22 05:02:21;;;;;;;61.83;29.32;;;;;;;-1.96;93.34;100169.36;1720002;80;21164;-48
2021/01/22 05:04:51;;;;;;;65.03;29.40;;;;;;;-1.96;93.33;100162.87;1723619;81;21141;-48
2021/01/22 05:07:22;;;;;;;65.52;30.30;;;;;;;-1.94;93.34;100164.96;1722957;81;21130;-48
2021/01/22 05:09:49;;;;;;;75.25;32.90;;;;;;;-1.93;93.34;100169.25;1712765;80;21156;-48
2021/01/22 05:12:18;;;;;;;71.77;29.67;;;;;;;-1.91;93.35;100169.66;1728919;80;22133;-48
2021/01/22 05:14:46;;;;;;;65.95;30.75;;;;;;;-1.89;93.33;100175.63;1733705;80;21161;-48
2021/01/22 05:17:14;;;;;;;70.17;30.35;;;;;;;-1.89;93.32;100176.50;1728426;81;21130;-48
2021/01/22 05:19:43;;;;;;;66.50;29.32;;;;;;;-1.87;93.31;100179.89;1716027;80;21129;-48
2021/01/22 05:22:15;;;;;;;64.20;28.95;;;;;;;-1.86;93.28;100168.61;1725872;82;21140;-47
2021/01/22 05:24:42;;;;;;;68.00;33.35;;;;;;;-1.86;93.28;100185.47;1772106;80;21376;-48
2021/01/22 05:27:12;;;;;;;74.03;30.68;;;;;;;-1.85;93.33;100167.71;1769057;80;22108;-47
2021/01/22 05:29:42;;;;;;;63.35;30.72;;;;;;;-1.83;93.34;100168.94;1746707;80;21673;-47
2021/01/22 05:32:30;;;;;;;73.70;32.10;;;;;;;-1.79;93.33;100174.42;1768703;80;21124;-48
2021/01/22 05:34:58;;;;;;;70.17;31.48;;;;;;;-1.80;93.30;100166.23;1763890;80;22056;-47
2021/01/22 05:37:26;;;;;;;62.55;29.42;;;;;;;-1.81;93.19;100165.84;1753369;80;21704;-47
2021/01/22 05:40:14;;;;;;;65.65;31.60;;;;;;;-1.81;93.24;100169.73;1778125;80;21164;-48
2021/01/22 05:42:47;;;;;;;64.30;29.80;;;;;;;-1.78;93.23;100168.33;1757322;80;21132;-48
2021/01/22 05:45:16;;;;;;;69.30;31.95;;;;;;;-1.76;93.25;100169.59;1756671;80;21010;-49
2021/01/22 05:47:44;;;;;;;65.17;30.32;;;;;;;-1.75;93.24;100176.02;1756509;80;21620;-48
2021/01/22 05:50:12;;;;;;;67.62;31.07;;;;;;;-1.73;93.20;100174.21;1778248;80;21186;-48
2021/01/22 05:52:40;;;;;;;66.35;31.60;;;;;;;-1.70;93.18;100176.70;1752875;80;21133;-48
2021/01/22 05:55:23;;;;;;;65.22;30.90;;;;;;;-1.69;93.15;100179.69;1778425;80;21125;-48
2021/01/22 05:57:51;;;;;;;67.25;30.70;;;;;;;-1.68;93.05;100177.50;1767500;80;21124;-48
2021/01/22 06:00:19;;;;;;;69.82;31.07;;;;;;;-1.66;93.01;100174.86;1735161;80;21145;-48
2021/01/22 06:02:47;;;;;;;67.30;29.80;;;;;;;-1.65;93.02;100172.66;1729902;80;21849;-48
2021/01/22 06:05:16;;;;;;;68.62;31.10;;;;;;;-1.65;92.98;100165.70;1765956;80;21143;-48
2021/01/22 06:07:46;;;;;;;68.97;32.20;;;;;;;-1.60;93.02;100175.08;1768251;80;21942;-48
2021/01/22 06:10:24;;;;;;;73.05;34.58;;;;;;;-1.58;93.01;100179.30;1762915;80;21696;-48
2021/01/22 06:12:54;;;;;;;74.03;33.75;;;;;;;-1.54;93.01;100191.73;1759572;80;21120;-48
2021/01/22 06:15:23;;;;;;;67.22;29.72;;;;;;;-1.48;92.89;100187.63;1778873;78;21384;-47
2021/01/22 06:17:53;;;;;;;71.42;33.65;;;;;;;-1.49;92.69;100185.47;1775406;80;21674;-52
2021/01/22 06:20:23;;;;;;;75.47;33.50;;;;;;;-1.49;92.65;100191.12;1746584;80;21142;-48
2021/01/22 06:23:06;;;;;;;73.45;32.48;;;;;;;-1.47;92.69;100175.05;1767821;80;21458;-47
2021/01/22 06:25:35;;;;;;;73.65;32.13;;;;;;;-1.43;92.75;100183.56;1719346;80;21088;-47
2021/01/22 06:28:05;;;;;;;72.42;33.67;;;;;;;-1.41;92.65;100172.23;1760844;79;22673;-47
2021/01/22 06:30:34;;;;;;;72.55;34.08;;;;;;;-1.39;92.56;100174.76;1780270;78;21154;-47
2021/01/22 06:33:06;;;;;;;79.10;35.95;;;;;;;-1.36;92.50;100171.62;1778149;80;20986;-47
2021/01/22 06:35:37;;;;;;;73.28;33.85;;;;;;;-1.34;92.40;100171.11;1775838;79;22085;-47
2021/01/22 06:38:07;;;;;;;75.85;32.93;;;;;;;-1.31;92.38;100170.60;1776070;78;21117;-47
2021/01/22 06:40:35;;;;;;;77.92;36.42;;;;;;;-1.30;92.28;100169.70;1778223;78;21197;-47
2021/01/22 06:43:03;;;;;;;78.67;36.20;;;;;;;-1.34;92.16;100171.11;1772908;79;22017;-48
2021/01/22 06:45:31;;;;;;;78.37;34.58;;;;;;;-1.31;92.19;100166.70;1761538;79;21119;-47
2021/01/22 06:48:02;;;;;;;78.05;31.65;;;;;;;-1.26;92.17;100172.58;1758409;79;21834;-48
2021/01/22 06:50:31;;;;;;;73.90;34.25;;;;;;;-1.26;92.14;100168.22;1760725;79;21989;-48
2021/01/22 06:53:11;;;;;;;75.83;33.10;;;;;;;-1.25;92.05;100161.29;1759884;79;21465;-48
2021/01/22 06:55:53;;;;;;;69.53;33.02;;;;;;;-1.23;92.01;100156.89;1760532;79;21141;-48
2021/01/22 06:58:31;;;;;;;71.40;34.27;;;;;;;-1.21;91.97;100156.38;1758558;79;21581;-48
2021/01/22 07:01:05;;;;;;;72.70;34.15;;;;;;;-1.20;91.95;100157.61;1760760;79;21723;-48
2021/01/22 07:03:47;;;;;;;79.07;32.67;;;;;;;-1.15;91.95;100157.89;1756595;79;21121;-48
2021/01/22 07:06:38;;;;;;;70.60;32.67;;;;;;;-1.14;91.80;100161.74;1757976;79;22952;-48
2021/01/22 07:09:06;;;;;;;70.65;31.85;;;;;;;-1.12;91.76;100162.97;1755358;79;21169;-48
2021/01/22 07:11:56;;;;;;;81.42;32.75;;;;;;;-1.09;91.75;100165.45;1762139;79;21125;-48
2021/01/22 07:14:38;;;;;;;72.05;39.53;;;;;;;-1.05;91.53;100159.23;1806650;76;29254;-48
2021/01/22 07:17:21;;;;;;;73.75;35.13;;;;;;;-1.05;91.57;100160.54;1787714;79;21688;-48
2021/01/22 07:20:10;;;;;;;76.25;33.90;;;;;;;-0.99;91.56;100156.84;1785487;79;21591;-48
2021/01/22 07:22:55;;;;;;;75.75;35.28;;;;;;;-0.95;91.43;100159.72;1777758;79;22629;-48
2021/01/22 07:25:38;;;;;;;74.60;35.38;;;;;;;-0.94;91.42;100155.78;1785367;79;21030;-48
2021/01/22 07:28:18;;;;;;;;;;;;;;;-0.94;91.16;100152.33;1790016;79;22592;-48
2021/01/22 07:30:46;;;;;;;81.78;34.83;;;;;;;-0.97;91.11;100151.14;1778665;79;20556;-48
2021/01/22 07:33:31;;;;;;;84.28;38.30;;;;;;;-0.98;91.19;100153.34;1788185;79;21615;-48
2021/01/22 07:36:19;;;;;;;72.62;33.75;;;;;;;-0.96;91.22;100157.59;1780646;79;21828;-49
2021/01/22 07:38:50;;;;;;;78.40;34.33;;;;;;;-0.91;91.29;100148.31;1777049;79;21026;-48
2021/01/22 07:41:21;;;;;;;74.82;35.52;;;;;;;-0.90;91.01;100156.50;1782346;79;21841;-48
2021/01/22 07:44:00;;;;;;;78.37;36.25;;;;;;;-0.88;90.95;100152.56;1786250;79;21177;-48
2021/01/22 07:46:45;;;;;;;76.60;36.10;;;;;;;-0.87;90.87;100160.28;1786777;79;21590;-47
2021/01/22 07:49:13;;;;;;;74.17;31.45;;;;;;;-0.86;90.86;100162.44;1789611;79;20979;-47
2021/01/22 07:51:41;;;;;;;81.37;35.13;;;;;;;-0.83;90.81;100155.83;1787434;79;20979;-48
2021/01/22 07:54:11;;;;;;;81.53;36.03;;;;;;;-0.81;90.43;100150.12;1790680;79;21187;-48
2021/01/22 07:56:40;;;;;;;71.87;32.45;;;;;;;-0.82;90.42;100160.12;1780967;79;20975;-48
2021/01/22 07:59:12;;;;;;;76.45;37.50;;;;;;;-0.76;90.86;100159.41;1786527;79;21210;-49
2021/01/22 08:01:41;;;;;;;79.07;37.03;;;;;;;-0.72;90.44;100159.30;1786013;79;21125;-48
2021/01/22 08:04:09;;;;;;;78.00;35.30;;;;;;;-0.72;90.35;100160.59;1790649;79;20971;-47
2021/01/22 08:06:49;;;;;;;80.47;36.53;;;;;;;-0.69;90.41;100156.58;1722930;82;21129;-47
2021/01/22 08:09:17;;;;;;;74.55;36.00;;;;;;;-0.70;90.06;100148.38;1717787;82;21137;-48
2021/01/22 08:11:48;;;;;;;85.07;37.42;;;;;;;-0.69;90.24;100143.14;1715306;81;21393;-48
2021/01/22 08:14:30;;;;;;;82.97;37.58;;;;;;;-0.69;90.01;100156.58;1690434;82;21035;-48
2021/01/22 08:16:59;;;;;;;80.83;34.85;;;;;;;-0.67;89.94;100154.77;1686216;83;21024;-48
2021/01/22 08:19:28;;;;;;;75.03;37.48;;;;;;;-0.65;89.84;100159.45;1705320;82;21148;-48
2021/01/22 08:21:56;;;;;;;75.65;36.10;;;;;;;-0.62;90.13;100154.99;1676471;84;21172;-48
2021/01/22 08:24:24;;;;;;;76.85;38.17;;;;;;;-0.58;89.85;100150.50;1734597;81;21260;-48
2021/01/22 08:26:58;;;;;;;79.32;37.23;;;;;;;-0.56;89.62;100148.69;1731276;81;21990;-48
2021/01/22 08:29:28;;;;;;;81.42;37.13;;;;;;;-0.53;89.54;100145.14;1734247;81;21008;-47
2021/01/22 08:31:56;;;;;;;76.53;35.90;;;;;;;-0.49;89.74;100142.34;1731177;81;21137;-48
2021/01/22 08:34:23;;;;;;;81.75;37.28;;;;;;;-0.47;89.63;100154.83;1725157;81;21111;-48
2021/01/22 08:36:52;;;;;;;67.55;32.95;;;;;;;-0.39;89.65;100150.59;1724696;81;21208;-48
2021/01/22 08:39:20;;;;;;;72.35;30.95;;;;;;;-0.36;89.32;100140.07;1698602;83;22009;-48
2021/01/22 08:41:48;;;;;;;74.35;36.75;;;;;;;-0.34;88.76;100144.76;1673527;83;21020;-48
2021/01/22 08:44:17;;;;;;;81.97;36.05;;;;;;;-0.36;88.56;100148.34;1675205;83;21134;-48
2021/01/22 08:46:50;;;;;;;70.65;35.15;;;;;;;-0.33;88.52;100154.72;1666386;84;21150;-48
2021/01/22 08:49:18;;;;;;;80.42;37.45;;;;;;;-0.32;88.52;100152.52;1684141;84;21395;-49
2021/01/22 08:51:46;;;;;;;77.20;37.95;;;;;;;-0.28;88.73;100146.72;1678772;84;21032;-48
2021/01/22 08:54:13;;;;;;;77.80;36.75;;;;;;;-0.30;88.20;100145.49;1673197;82;21026;-48
2021/01/22 08:56:41;;;;;;;76.15;36.08;;;;;;;-0.33;87.96;100137.34;1738531;81;21942;-48
2021/01/22 08:59:10;;;;;;;69.30;34.88;;;;;;;-0.32;88.03;100126.50;1735773;81;21142;-48
2021/01/22 09:01:56;;;;;;;67.53;35.17;;;;;;;-0.28;88.10;100133.27;1748556;81;21435;-48
2021/01/22 09:04:29;;;;;;;75.57;34.00;;;;;;;-0.26;88.31;100127.98;1735826;81;21752;-48
2021/01/22 09:06:58;;;;;;;71.45;35.03;;;;;;;-0.24;87.97;100122.27;1738853;81;21134;-47
2021/01/22 09:09:48;;;;;;;76.00;36.00;;;;;;;-0.24;87.81;100117.93;1734123;81;20987;-47
2021/01/22 09:12:22;;;;;;;62.85;32.83;;;;;;;-0.24;87.57;100114.03;1750995;81;20984;-47
2021/01/22 09:14:57;;;;;;;70.10;35.80;;;;;;;-0.19;87.74;100111.22;1759865;80;21205;-48
2021/01/22 09:17:50;;;;;;;69.75;37.30;;;;;;;-0.11;87.83;100113.05;1774035;80;21957;-48
2021/01/22 09:20:26;;;;;;;70.15;35.50;;;;;;;-0.09;87.51;100109.92;1772088;80;20956;-48
2021/01/22 09:22:56;;;;;;;72.58;36.00;;;;;;;-0.01;87.43;100112.22;1744389;80;21142;-47
2021/01/22 09:25:26;;;;;;;65.17;32.15;;;;;;;0.08;87.45;100109.19;1723683;81;21112;-47
2021/01/22 09:27:53;;;;;;;65.40;33.95;;;;;;;0.20;87.24;100114.78;1760564;81;21208;-47
2021/01/22 09:30:23;;;;;;;63.92;32.85;;;;;;;0.26;86.96;100116.67;1751769;81;21908;-48
2021/01/22 09:32:54;;;;;;;67.78;35.23;;;;;;;0.33;86.68;100109.42;1742163;81;21202;-47
2021/01/22 09:35:24;;;;;;;62.05;32.53;;;;;;;0.40;86.19;100109.55;1742944;81;20979;-47
2021/01/22 09:37:52;;;;;;;73.47;36.28;;;;;;;0.46;86.04;100103.67;1745971;81;20953;-47
2021/01/22 09:40:20;;;;;;;68.83;36.28;;;;;;;0.48;85.24;100104.45;1749035;81;21939;-47
2021/01/22 09:42:48;;;;;;;66.28;35.03;;;;;;;0.46;85.38;100098.47;1684750;84;21011;-47
2021/01/22 09:45:16;;;;;;;61.37;32.15;;;;;;;0.48;85.41;100097.50;1708750;82;21640;-48
2021/01/22 09:47:44;;;;;;;65.72;33.45;;;;;;;0.54;85.08;100103.70;1691463;83;22187;-48
2021/01/22 09:50:15;;;;;;;59.80;32.35;;;;;;;0.54;85.12;100091.16;1690295;83;21150;-49
2021/01/22 09:52:43;;;;;;;62.45;34.48;;;;;;;0.57;85.00;100091.02;1749074;81;21564;-48
2021/01/22 09:55:15;;;;;;;66.12;34.55;;;;;;;0.59;84.80;100083.98;1738295;81;21149;-48
2021/01/22 09:57:51;;;;;;;66.30;34.35;;;;;;;0.64;84.37;100082.01;1868810;74;22680;-48
2021/01/22 10:00:20;;;;;;;71.87;33.55;;;;;;;0.62;84.47;100077.33;1832874;77;22663;-46
2021/01/22 10:02:48;;;;;;;62.53;33.98;;;;;;;0.63;84.44;100082.92;1836865;77;21426;-48
2021/01/22 10:05:16;;;;;;;64.17;34.85;;;;;;;0.63;84.26;100079.45;1767342;80;22140;-48
2021/01/22 10:07:44;;;;;;;67.47;35.13;;;;;;;0.62;84.31;100075.16;1808687;77;21065;-47
2021/01/22 10:10:12;;;;;;;64.72;33.28;;;;;;;0.66;84.55;100086.69;1772522;80;21541;-48
2021/01/22 10:12:41;;;;;;;64.50;32.42;;;;;;;0.69;84.09;100082.64;1779100;80;20991;-48
2021/01/22 10:15:10;;;;;;;64.97;33.83;;;;;;;0.73;83.94;100071.16;1780504;78;21548;-48
2021/01/22 10:17:40;;;;;;;68.25;35.28;;;;;;;0.80;83.81;100065.20;1780213;80;28968;-48
2021/01/22 10:20:11;;;;;;;64.22;33.83;;;;;;;0.80;83.81;100065.20;1808731;78;21125;-48
2021/01/22 10:22:39;;;;;;;64.42;33.40;;;;;;;0.85;83.94;100059.78;1808167;77;20967;-48
2021/01/22 10:25:08;;;;;;;63.08;32.67;;;;;;;0.94;83.83;100059.35;1815158;77;21105;-48
2021/01/22 10:27:36;;;;;;;62.95;35.65;;;;;;;1.03;83.68;100048.48;1794204;79;22201;-48
2021/01/22 10:30:05;;;;;;;62.67;33.65;;;;;;;1.10;83.31;100046.41;1782809;79;22085;-47
2021/01/22 10:32:33;;;;;;;62.80;32.85;;;;;;;1.15;83.23;100047.48;1804355;79;21027;-47
2021/01/22 10:35:01;;;;;;;67.65;34.85;;;;;;;1.21;82.50;100041.14;1779186;80;21965;-48
2021/01/22 10:37:29;;;;;;;57.50;31.82;;;;;;;1.27;81.94;100044.75;1779382;80;21933;-47
2021/01/22 10:39:57;;;;;;;61.18;31.90;;;;;;;1.27;81.72;100046.89;1814173;77;21366;-48
2021/01/22 10:42:27;;;;;;;64.37;33.98;;;;;;;1.29;82.11;100037.22;1808415;78;21011;-48
2021/01/22 10:44:54;;;;;;;65.72;32.95;;;;;;;1.33;82.19;100030.94;1809462;78;21015;-47
2021/01/22 10:47:22;;;;;;;62.67;33.25;;;;;;;1.39;81.97;100031.55;1813599;78;21869;-48
2021/01/22 10:49:51;;;;;;;58.50;32.63;;;;;;;1.45;81.73;100026.89;1811990;77;21137;-48
2021/01/22 10:52:19;;;;;;;61.83;34.67;;;;;;;1.50;81.10;100021.43;1788842;79;22550;-47
2021/01/22 10:54:47;;;;;;;65.72;33.33;;;;;;;1.49;80.88;100009.31;1780184;79;21146;-47
2021/01/22 10:57:14;;;;;;;59.93;31.62;;;;;;;1.55;81.11;100012.09;1790433;79;21114;-48
2021/01/22 10:59:42;;;;;;;53.90;31.23;;;;;;;1.60;81.04;100002.23;1797811;78;21906;-47
2021/01/22 11:02:10;;;;;;;55.63;30.27;;;;;;;1.70;80.76;99998.23;1795207;78;21117;-47
2021/01/22 11:04:40;;;;;;;59.95;33.25;;;;;;;1.81;80.45;100000.30;1797321;78;22213;-48
2021/01/22 11:07:08;;;;;;;63.00;33.30;;;;;;;1.87;79.86;99996.06;1797112;78;20990;-47
2021/01/22 11:09:36;;;;;;;56.77;30.05;;;;;;;1.95;79.70;99996.13;1794302;78;22089;-48
2021/01/22 11:12:05;;;;;;;59.27;31.45;;;;;;;2.05;79.77;99994.72;1809835;78;22068;-47
2021/01/22 11:14:33;;;;;;;60.40;34.30;;;;;;;2.14;79.16;99992.06;1809985;78;20975;-47
2021/01/22 11:17:00;;;;;;;57.83;31.87;;;;;;;2.20;78.91;99986.03;1810616;78;21605;-48
2021/01/22 11:19:31;;;;;;;57.48;32.08;;;;;;;2.25;78.62;99978.41;1810345;78;20988;-48
2021/01/22 11:21:58;;;;;;;60.98;31.60;;;;;;;2.29;77.79;99976.88;1810758;78;21558;-48
2021/01/22 11:24:25;;;;;;;55.33;31.17;;;;;;;2.29;77.68;99973.41;1810903;78;21110;-48
2021/01/22 11:26:55;;;;;;;60.28;32.55;;;;;;;2.35;77.94;99969.16;1810945;78;22152;-48